サンクトペテルブルク の空港の天気 - METARとTAF

プルコヴォ空港(サンクトペテルブルグ) ( ULLI / LED ) - ロシア サンクトペテルブルク
飛行場実況気象(Metar)
観測時間10/20 12:00 MSK (10/20 09:00 UTC)
風向・風速西 2m/s
視程10km以上
天気現象
全天の4割程度の雲 雲底高度 430m
気温8℃
湿度87%
気圧1020hPa
METARULLI 200900Z 27002MPS 240V300 9999 SCT014 08/06 Q1020 R88/090060 NOSIG
過去の天気等 Google飛行場航空写真 Wunderground天気予報

過去48時間のMETAR

飛行場予報(TAF)
発表時間: 10/20 10:56 MSK (10/20 07:56 UTC)
予報対象時間: 20日12時 MSK ~ 21日12時 MSK
風向・風速西 3m/s
視程10km以上
全天の4割程度の雲 雲底高度 340m
全天の8割程度の雲 雲底高度 610m
20日12時 MSK ~ 20日18時 MSK に一時的に
視程3100m
天気現象弱いしゅう雨 もや
全天の8割程度の雲 雲底高度 340m
全天の8割程度の積乱雲 雲底高度 610m
20日18時 MSK ~ 20日23時 MSK に一時的に
風向・風速不定 1m/s
視程3100m
天気現象もや
20日23時 MSK ~ 20日24時 MSK に徐々に
風向・風速南西 3m/s
視程3100m
天気現象もや
20日23時 MSK ~ 21日9時 MSK に一時的に
視程300m
天気現象
全天を覆う雲 鉛直視程 60m
21日9時 MSK ~ 21日11時 MSK に徐々に
風向・風速西南西 5m/s 瞬間風速 10m/s
視程10km以上
天気現象運行に影響にある天気現象が終了
TAF ULLI 200756Z 2009/2109 26003MPS 9999 SCT011 BKN020
TEMPO 2009/2015 3100 -SHRA BR BKN011 BKN020CB
TEMPO 2015/2020 VRB01MPS 3100 BR
BECMG 2020/2021 23003MPS 3100 BR
TEMPO 2020/2106 0300 FG VV002
BECMG 2106/2108 24005G10MPS 9999 NSW